sensor_id;sensor_type;location;lat;lon;timestamp;pressure;altitude;pressure_sealevel;temperature;humidity
61618;BME280;47518;51.776;9.370;2023-04-08T00:00:23;100807.31;;;7.04;59.93
61618;BME280;47518;51.776;9.370;2023-04-08T00:02:48;100800.63;;;7.08;62.27
61618;BME280;47518;51.776;9.370;2023-04-08T00:05:13;100804.47;;;7.06;62.13
61618;BME280;47518;51.776;9.370;2023-04-08T00:07:39;100812.44;;;6.97;62.47
61618;BME280;47518;51.776;9.370;2023-04-08T00:10:04;100809.28;;;6.83;61.53
61618;BME280;47518;51.776;9.370;2023-04-08T00:12:31;100812.84;;;6.93;62.20
61618;BME280;47518;51.776;9.370;2023-04-08T00:14:56;100813.72;;;6.84;61.89
61618;BME280;47518;51.776;9.370;2023-04-08T00:17:22;100816.41;;;6.84;63.39
61618;BME280;47518;51.776;9.370;2023-04-08T00:19:47;100811.13;;;6.82;63.70
61618;BME280;47518;51.776;9.370;2023-04-08T00:22:12;100811.25;;;6.71;64.04
61618;BME280;47518;51.776;9.370;2023-04-08T00:24:38;100814.28;;;6.87;63.67
61618;BME280;47518;51.776;9.370;2023-04-08T00:27:04;100811.00;;;6.93;63.44
61618;BME280;47518;51.776;9.370;2023-04-08T00:29:30;100801.31;;;6.81;63.78
61618;BME280;47518;51.776;9.370;2023-04-08T00:31:55;100803.88;;;6.63;64.21
61618;BME280;47518;51.776;9.370;2023-04-08T00:34:20;100804.44;;;6.67;64.86
61618;BME280;47518;51.776;9.370;2023-04-08T00:36:46;100809.72;;;6.88;63.48
61618;BME280;47518;51.776;9.370;2023-04-08T00:39:12;100801.03;;;6.94;63.57
61618;BME280;47518;51.776;9.370;2023-04-08T00:41:37;100804.59;;;7.04;62.83
61618;BME280;47518;51.776;9.370;2023-04-08T00:44:03;100811.28;;;6.81;64.41
61618;BME280;47518;51.776;9.370;2023-04-08T00:46:30;100812.13;;;6.81;64.49
61618;BME280;47518;51.776;9.370;2023-04-08T00:48:56;100812.84;;;6.93;65.24
61618;BME280;47518;51.776;9.370;2023-04-08T00:51:21;100811.56;;;6.87;65.30
61618;BME280;47518;51.776;9.370;2023-04-08T00:53:46;100804.75;;;6.73;66.35
61618;BME280;47518;51.776;9.370;2023-04-08T00:56:11;100809.00;;;6.76;66.62
61618;BME280;47518;51.776;9.370;2023-04-08T00:58:37;100811.59;;;6.97;66.21
61618;BME280;47518;51.776;9.370;2023-04-08T01:01:07;100804.19;;;6.99;64.66
61618;BME280;47518;51.776;9.370;2023-04-08T01:06:28;100799.47;;;7.01;64.36
61618;BME280;47518;51.776;9.370;2023-04-08T01:08:58;100798.34;;;6.94;63.74
61618;BME280;47518;51.776;9.370;2023-04-08T01:11:26;100802.75;;;7.05;64.68
61618;BME280;47518;51.776;9.370;2023-04-08T01:13:53;100806.31;;;7.15;64.67
61618;BME280;47518;51.776;9.370;2023-04-08T01:16:20;100797.63;;;7.01;63.71
61618;BME280;47518;51.776;9.370;2023-04-08T01:18:48;100789.53;;;7.11;62.26
61618;BME280;47518;51.776;9.370;2023-04-08T01:21:15;100793.66;;;7.25;62.80
61618;BME280;47518;51.776;9.370;2023-04-08T01:26:23;100788.06;;;7.46;63.29
61618;BME280;47518;51.776;9.370;2023-04-08T01:28:52;100793.19;;;7.58;63.15
61618;BME280;47518;51.776;9.370;2023-04-08T01:31:19;100787.28;;;7.73;63.80
61618;BME280;47518;51.776;9.370;2023-04-08T01:33:47;100789.13;;;7.82;64.47
61618;BME280;47518;51.776;9.370;2023-04-08T01:36:13;100791.59;;;7.66;64.43
61618;BME280;47518;51.776;9.370;2023-04-08T01:38:41;100800.59;;;7.56;63.05
61618;BME280;47518;51.776;9.370;2023-04-08T01:41:08;100792.78;;;7.34;62.91
61618;BME280;47518;51.776;9.370;2023-04-08T01:43:35;100792.66;;;7.16;64.39
61618;BME280;47518;51.776;9.370;2023-04-08T01:46:00;100793.34;;;7.38;63.96
61618;BME280;47518;51.776;9.370;2023-04-08T01:48:27;100796.06;;;7.28;64.74
61618;BME280;47518;51.776;9.370;2023-04-08T01:50:54;100790.78;;;7.17;64.32
61618;BME280;47518;51.776;9.370;2023-04-08T01:53:21;100791.94;;;7.24;64.19
61618;BME280;47518;51.776;9.370;2023-04-08T01:55:49;100792.34;;;7.29;64.34
61618;BME280;47518;51.776;9.370;2023-04-08T01:58:19;100791.09;;;7.43;63.93
61618;BME280;47518;51.776;9.370;2023-04-08T02:00:45;100793.09;;;7.31;65.21
61618;BME280;47518;51.776;9.370;2023-04-08T02:03:11;100795.59;;;7.52;65.66
61618;BME280;47518;51.776;9.370;2023-04-08T02:05:38;100795.88;;;7.58;66.72
61618;BME280;47518;51.776;9.370;2023-04-08T02:08:03;100793.72;;;7.72;66.72
61618;BME280;47518;51.776;9.370;2023-04-08T02:10:29;100804.22;;;7.84;67.06
61618;BME280;47518;51.776;9.370;2023-04-08T02:12:55;100797.09;;;7.83;68.80
61618;BME280;47518;51.776;9.370;2023-04-08T02:15:21;100802.09;;;7.88;68.32
61618;BME280;47518;51.776;9.370;2023-04-08T02:17:49;100805.91;;;7.85;67.96
61618;BME280;47518;51.776;9.370;2023-04-08T02:23:00;100804.97;;;7.67;70.10
61618;BME280;47518;51.776;9.370;2023-04-08T02:25:28;100797.88;;;7.66;69.10
61618;BME280;47518;51.776;9.370;2023-04-08T02:27:55;100803.69;;;7.61;71.18
61618;BME280;47518;51.776;9.370;2023-04-08T02:30:21;100810.53;;;7.66;71.57
61618;BME280;47518;51.776;9.370;2023-04-08T02:32:50;100808.53;;;7.68;73.04
61618;BME280;47518;51.776;9.370;2023-04-08T02:35:18;100810.28;;;7.49;72.23
61618;BME280;47518;51.776;9.370;2023-04-08T02:37:45;100807.72;;;7.38;74.04
61618;BME280;47518;51.776;9.370;2023-04-08T02:40:29;100805.00;;;7.57;73.95
61618;BME280;47518;51.776;9.370;2023-04-08T02:42:55;100808.97;;;7.63;74.06
61618;BME280;47518;51.776;9.370;2023-04-08T02:45:21;100805.00;;;7.57;75.17
61618;BME280;47518;51.776;9.370;2023-04-08T02:47:47;100812.13;;;7.58;75.54
61618;BME280;47518;51.776;9.370;2023-04-08T02:50:12;100810.56;;;7.46;75.20
61618;BME280;47518;51.776;9.370;2023-04-08T02:52:38;100817.97;;;7.54;75.93
61618;BME280;47518;51.776;9.370;2023-04-08T02:55:04;100813.56;;;7.43;74.79
61618;BME280;47518;51.776;9.370;2023-04-08T02:57:31;100822.84;;;7.31;75.39
61618;BME280;47518;51.776;9.370;2023-04-08T02:59:56;100817.84;;;7.36;75.37
61618;BME280;47518;51.776;9.370;2023-04-08T03:02:22;100829.91;;;7.51;75.05
61618;BME280;47518;51.776;9.370;2023-04-08T03:04:47;100827.09;;;7.53;76.64
61618;BME280;47518;51.776;9.370;2023-04-08T03:07:12;100828.91;;;7.52;76.08
61618;BME280;47518;51.776;9.370;2023-04-08T03:09:37;100822.94;;;7.39;76.33
61618;BME280;47518;51.776;9.370;2023-04-08T03:12:05;100830.34;;;7.56;76.27
61618;BME280;47518;51.776;9.370;2023-04-08T03:14:31;100818.13;;;7.43;76.03
61618;BME280;47518;51.776;9.370;2023-04-08T03:16:56;100817.53;;;7.39;77.50
61618;BME280;47518;51.776;9.370;2023-04-08T03:19:21;100822.09;;;7.48;76.65
61618;BME280;47518;51.776;9.370;2023-04-08T03:21:47;100817.25;;;7.52;76.30
61618;BME280;47518;51.776;9.370;2023-04-08T03:24:12;100826.50;;;7.59;75.87
61618;BME280;47518;51.776;9.370;2023-04-08T03:26:37;100830.50;;;7.55;75.99
61618;BME280;47518;51.776;9.370;2023-04-08T03:29:03;100831.66;;;7.33;76.56
61618;BME280;47518;51.776;9.370;2023-04-08T03:31:28;100828.50;;;7.57;76.99
61618;BME280;47518;51.776;9.370;2023-04-08T03:33:53;100835.31;;;7.61;76.36
61618;BME280;47518;51.776;9.370;2023-04-08T03:36:21;100832.75;;;7.59;77.11
61618;BME280;47518;51.776;9.370;2023-04-08T03:38:47;100831.34;;;7.65;75.69
61618;BME280;47518;51.776;9.370;2023-04-08T03:41:12;100828.59;;;7.75;75.09
61618;BME280;47518;51.776;9.370;2023-04-08T03:43:37;100826.09;;;7.54;76.98
61618;BME280;47518;51.776;9.370;2023-04-08T03:46:03;100828.06;;;7.61;77.66
61618;BME280;47518;51.776;9.370;2023-04-08T03:48:28;100828.34;;;7.58;77.23
61618;BME280;47518;51.776;9.370;2023-04-08T03:50:53;100825.66;;;7.58;78.06
61618;BME280;47518;51.776;9.370;2023-04-08T03:53:18;100829.75;;;7.63;78.73
61618;BME280;47518;51.776;9.370;2023-04-08T03:55:44;100824.94;;;7.56;79.30
61618;BME280;47518;51.776;9.370;2023-04-08T03:58:09;100830.50;;;7.65;78.10
61618;BME280;47518;51.776;9.370;2023-04-08T04:00:35;100836.22;;;7.42;77.35
61618;BME280;47518;51.776;9.370;2023-04-08T04:03:00;100837.19;;;7.51;77.67
61618;BME280;47518;51.776;9.370;2023-04-08T04:05:26;100841.59;;;7.61;77.20
61618;BME280;47518;51.776;9.370;2023-04-08T04:07:51;100837.63;;;7.56;77.83
61618;BME280;47518;51.776;9.370;2023-04-08T04:10:18;100840.75;;;7.51;78.13
61618;BME280;47518;51.776;9.370;2023-04-08T04:12:43;100850.59;;;7.33;78.40
61618;BME280;47518;51.776;9.370;2023-04-08T04:15:09;100848.59;;;7.35;79.28
61618;BME280;47518;51.776;9.370;2023-04-08T04:17:35;100853.56;;;7.11;80.69
61618;BME280;47518;51.776;9.370;2023-04-08T04:20:03;100853.72;;;7.19;79.98
61618;BME280;47518;51.776;9.370;2023-04-08T04:22:28;100845.03;;;7.25;82.47
61618;BME280;47518;51.776;9.370;2023-04-08T04:24:53;100854.13;;;7.24;83.47
61618;BME280;47518;51.776;9.370;2023-04-08T04:27:19;100853.72;;;7.19;82.79
61618;BME280;47518;51.776;9.370;2023-04-08T04:29:44;100865.38;;;7.10;83.66
61618;BME280;47518;51.776;9.370;2023-04-08T04:32:10;100861.09;;;7.17;84.03
61618;BME280;47518;51.776;9.370;2023-04-08T04:34:35;100869.34;;;7.15;83.45
61618;BME280;47518;51.776;9.370;2023-04-08T04:37:00;100866.53;;;7.07;84.00
61618;BME280;47518;51.776;9.370;2023-04-08T04:39:26;100871.06;;;7.07;83.88
61618;BME280;47518;51.776;9.370;2023-04-08T04:41:52;100866.78;;;7.04;82.62
61618;BME280;47518;51.776;9.370;2023-04-08T04:44:17;100871.66;;;7.20;83.28
61618;BME280;47518;51.776;9.370;2023-04-08T04:46:42;100880.44;;;7.02;83.74
61618;BME280;47518;51.776;9.370;2023-04-08T04:49:07;100879.59;;;7.12;83.47
61618;BME280;47518;51.776;9.370;2023-04-08T04:51:33;100872.16;;;6.75;83.34
61618;BME280;47518;51.776;9.370;2023-04-08T04:53:58;100866.28;;;6.60;84.24
61618;BME280;47518;51.776;9.370;2023-04-08T04:56:23;100880.41;;;6.73;83.43
61618;BME280;47518;51.776;9.370;2023-04-08T04:58:50;100881.38;;;6.82;84.67
61618;BME280;47518;51.776;9.370;2023-04-08T05:01:16;100877.72;;;6.83;84.67
61618;BME280;47518;51.776;9.370;2023-04-08T05:03:41;100871.00;;;6.78;84.50
61618;BME280;47518;51.776;9.370;2023-04-08T05:06:13;100870.69;;;6.71;85.14
61618;BME280;47518;51.776;9.370;2023-04-08T05:08:38;100874.88;;;6.85;85.02
61618;BME280;47518;51.776;9.370;2023-04-08T05:11:08;100875.88;;;6.84;85.05
61618;BME280;47518;51.776;9.370;2023-04-08T05:13:33;100883.56;;;6.88;84.37
61618;BME280;47518;51.776;9.370;2023-04-08T05:15:59;100881.88;;;6.97;83.90
61618;BME280;47518;51.776;9.370;2023-04-08T05:18:24;100886.69;;;6.93;84.41
61618;BME280;47518;51.776;9.370;2023-04-08T05:20:50;100888.94;;;6.79;84.19
61618;BME280;47518;51.776;9.370;2023-04-08T05:23:15;100884.56;;;6.97;84.49
61618;BME280;47518;51.776;9.370;2023-04-08T05:25:40;100887.13;;;6.98;83.18
61618;BME280;47518;51.776;9.370;2023-04-08T05:28:06;100896.94;;;6.99;84.45
61618;BME280;47518;51.776;9.370;2023-04-08T05:30:31;100897.78;;;6.90;84.51
61618;BME280;47518;51.776;9.370;2023-04-08T05:32:56;100896.63;;;6.83;84.71
61618;BME280;47518;51.776;9.370;2023-04-08T05:35:22;100899.50;;;7.01;83.84
61618;BME280;47518;51.776;9.370;2023-04-08T05:37:47;100904.19;;;6.89;84.23
61618;BME280;47518;51.776;9.370;2023-04-08T05:40:12;100909.47;;;7.00;84.36
61618;BME280;47518;51.776;9.370;2023-04-08T05:42:38;100909.56;;;6.80;83.87
61618;BME280;47518;51.776;9.370;2023-04-08T05:45:03;100907.31;;;6.94;83.24
61618;BME280;47518;51.776;9.370;2023-04-08T05:47:29;100910.03;;;7.04;83.42
61618;BME280;47518;51.776;9.370;2023-04-08T05:49:55;100904.63;;;7.04;82.82
61618;BME280;47518;51.776;9.370;2023-04-08T05:52:20;100908.91;;;6.97;82.91
61618;BME280;47518;51.776;9.370;2023-04-08T05:54:45;100907.16;;;6.86;83.68
61618;BME280;47518;51.776;9.370;2023-04-08T05:57:11;100910.88;;;6.85;83.14
61618;BME280;47518;51.776;9.370;2023-04-08T05:59:36;100915.69;;;6.91;84.09
61618;BME280;47518;51.776;9.370;2023-04-08T06:02:02;100927.41;;;7.01;82.56
61618;BME280;47518;51.776;9.370;2023-04-08T06:04:27;100921.00;;;7.02;83.07
61618;BME280;47518;51.776;9.370;2023-04-08T06:06:52;100918.31;;;7.12;82.58
61618;BME280;47518;51.776;9.370;2023-04-08T06:09:18;100926.00;;;7.26;82.97
61618;BME280;47518;51.776;9.370;2023-04-08T06:25:01;100953.31;;;6.12;88.80
61618;BME280;47518;51.776;9.370;2023-04-08T06:27:27;100948.81;;;6.43;88.71
61618;BME280;47518;51.776;9.370;2023-04-08T06:29:52;100954.94;;;6.76;87.08
61618;BME280;47518;51.776;9.370;2023-04-08T06:32:18;100950.28;;;6.88;85.72
61618;BME280;47518;51.776;9.370;2023-04-08T06:34:44;100957.59;;;7.07;85.58
61618;BME280;47518;51.776;9.370;2023-04-08T06:37:10;100957.47;;;7.27;84.18
61618;BME280;47518;51.776;9.370;2023-04-08T06:39:35;100960.13;;;6.98;83.78
61618;BME280;47518;51.776;9.370;2023-04-08T06:42:00;100952.06;;;7.18;83.38
61618;BME280;47518;51.776;9.370;2023-04-08T06:44:26;100955.75;;;7.26;83.85
61618;BME280;47518;51.776;9.370;2023-04-08T06:46:51;100961.78;;;7.30;82.33
61618;BME280;47518;51.776;9.370;2023-04-08T06:49:17;100954.66;;;7.48;82.57
61618;BME280;47518;51.776;9.370;2023-04-08T06:51:42;100964.34;;;7.60;81.90
61618;BME280;47518;51.776;9.370;2023-04-08T06:54:07;100957.94;;;7.61;81.42
61618;BME280;47518;51.776;9.370;2023-04-08T06:56:34;100963.09;;;7.65;81.01
61618;BME280;47518;51.776;9.370;2023-04-08T06:59:00;100971.63;;;7.70;81.18
61618;BME280;47518;51.776;9.370;2023-04-08T07:01:25;100969.06;;;7.78;79.92
61618;BME280;47518;51.776;9.370;2023-04-08T07:03:50;100972.88;;;7.46;81.40
61618;BME280;47518;51.776;9.370;2023-04-08T07:06:16;100966.50;;;7.76;81.34
61618;BME280;47518;51.776;9.370;2023-04-08T07:08:41;100961.06;;;7.47;80.65
61618;BME280;47518;51.776;9.370;2023-04-08T07:11:07;100967.34;;;7.57;80.63
61618;BME280;47518;51.776;9.370;2023-04-08T07:13:32;100976.19;;;7.69;80.68
61618;BME280;47518;51.776;9.370;2023-04-08T07:15:57;100978.72;;;7.61;80.88
61618;BME280;47518;51.776;9.370;2023-04-08T07:18:23;100983.75;;;7.66;80.77
61618;BME280;47518;51.776;9.370;2023-04-08T07:20:51;100986.25;;;7.38;82.22
61618;BME280;47518;51.776;9.370;2023-04-08T07:23:18;100996.53;;;7.44;82.65
61618;BME280;47518;51.776;9.370;2023-04-08T07:25:44;100992.25;;;7.51;82.22
61618;BME280;47518;51.776;9.370;2023-04-08T07:28:09;100995.69;;;7.53;82.10
61618;BME280;47518;51.776;9.370;2023-04-08T07:30:35;100998.38;;;7.63;81.78
61618;BME280;47518;51.776;9.370;2023-04-08T07:33:00;100996.41;;;7.65;81.24
61618;BME280;47518;51.776;9.370;2023-04-08T07:35:26;101013.31;;;7.48;82.18
61618;BME280;47518;51.776;9.370;2023-04-08T07:37:51;101000.31;;;7.22;83.71
61618;BME280;47518;51.776;9.370;2023-04-08T07:40:17;101011.59;;;7.37;82.71
61618;BME280;47518;51.776;9.370;2023-04-08T07:42:43;101008.06;;;7.46;82.86
61618;BME280;47518;51.776;9.370;2023-04-08T07:45:09;101012.66;;;7.65;82.73
61618;BME280;47518;51.776;9.370;2023-04-08T07:47:34;101011.06;;;7.63;82.55
61618;BME280;47518;51.776;9.370;2023-04-08T07:49:59;101011.34;;;7.59;82.52
61618;BME280;47518;51.776;9.370;2023-04-08T07:52:25;101019.19;;;7.53;81.56
61618;BME280;47518;51.776;9.370;2023-04-08T07:54:51;101018.16;;;7.35;82.61
61618;BME280;47518;51.776;9.370;2023-04-08T07:57:16;101019.75;;;7.47;81.83
61618;BME280;47518;51.776;9.370;2023-04-08T07:59:42;101016.19;;;7.46;82.50
61618;BME280;47518;51.776;9.370;2023-04-08T08:02:07;101014.34;;;7.56;81.86
61618;BME280;47518;51.776;9.370;2023-04-08T08:04:32;101017.16;;;7.45;82.56
61618;BME280;47518;51.776;9.370;2023-04-08T08:06:58;101025.72;;;7.50;82.31
61618;BME280;47518;51.776;9.370;2023-04-08T08:09:23;101021.59;;;7.46;82.37
61618;BME280;47518;51.776;9.370;2023-04-08T08:11:48;101030.00;;;7.63;81.99
61618;BME280;47518;51.776;9.370;2023-04-08T08:14:14;101034.00;;;7.58;82.17
61618;BME280;47518;51.776;9.370;2023-04-08T08:16:39;101030.53;;;7.37;83.21
61618;BME280;47518;51.776;9.370;2023-04-08T08:19:05;101039.63;;;7.36;83.30
61618;BME280;47518;51.776;9.370;2023-04-08T08:21:35;101031.16;;;7.70;81.33
61618;BME280;47518;51.776;9.370;2023-04-08T08:24:00;101036.13;;;7.55;82.17
61618;BME280;47518;51.776;9.370;2023-04-08T08:26:26;101040.41;;;7.57;82.57
61618;BME280;47518;51.776;9.370;2023-04-08T08:28:52;101032.72;;;7.63;82.74
61618;BME280;47518;51.776;9.370;2023-04-08T08:31:18;101040.00;;;7.81;81.34
61618;BME280;47518;51.776;9.370;2023-04-08T08:33:43;101042.16;;;7.78;80.59
61618;BME280;47518;51.776;9.370;2023-04-08T08:36:08;101060.66;;;7.73;81.98
61618;BME280;47518;51.776;9.370;2023-04-08T08:38:34;101045.28;;;7.83;80.55
61618;BME280;47518;51.776;9.370;2023-04-08T08:41:00;101044.31;;;8.13;80.90
61618;BME280;47518;51.776;9.370;2023-04-08T08:43:26;101052.56;;;8.02;80.59
61618;BME280;47518;51.776;9.370;2023-04-08T08:45:53;101049.00;;;8.11;81.24
61618;BME280;47518;51.776;9.370;2023-04-08T08:48:19;101051.72;;;8.11;80.29
61618;BME280;47518;51.776;9.370;2023-04-08T08:50:45;101050.84;;;8.30;80.48
61618;BME280;47518;51.776;9.370;2023-04-08T08:53:10;101052.69;;;8.10;80.25
61618;BME280;47518;51.776;9.370;2023-04-08T08:55:36;101056.41;;;8.18;80.06
61618;BME280;47518;51.776;9.370;2023-04-08T08:58:04;101059.25;;;7.78;80.51
61618;BME280;47518;51.776;9.370;2023-04-08T09:00:31;101046.56;;;8.17;79.77
61618;BME280;47518;51.776;9.370;2023-04-08T09:03:14;101065.66;;;8.06;81.51
61618;BME280;47518;51.776;9.370;2023-04-08T09:05:47;101065.09;;;7.93;81.88
61618;BME280;47518;51.776;9.370;2023-04-08T09:08:31;101072.34;;;7.83;80.75
61618;BME280;47518;51.776;9.370;2023-04-08T09:11:18;101080.22;;;8.15;80.73
61618;BME280;47518;51.776;9.370;2023-04-08T09:13:45;101076.06;;;8.20;80.88
61618;BME280;47518;51.776;9.370;2023-04-08T09:16:12;101081.22;;;8.14;81.34
61618;BME280;47518;51.776;9.370;2023-04-08T09:18:39;101088.91;;;7.99;81.90
61618;BME280;47518;51.776;9.370;2023-04-08T09:21:07;101082.38;;;8.11;81.20
61618;BME280;47518;51.776;9.370;2023-04-08T09:23:52;101086.75;;;8.32;79.98
61618;BME280;47518;51.776;9.370;2023-04-08T09:26:19;101083.91;;;8.04;81.00
61618;BME280;47518;51.776;9.370;2023-04-08T09:31:39;101096.72;;;7.93;81.35
61618;BME280;47518;51.776;9.370;2023-04-08T09:34:10;101104.94;;;7.72;83.28
61618;BME280;47518;51.776;9.370;2023-04-08T09:36:36;101103.13;;;7.82;83.03
61618;BME280;47518;51.776;9.370;2023-04-08T09:39:02;101097.16;;;7.88;82.72
61618;BME280;47518;51.776;9.370;2023-04-08T09:41:28;101103.16;;;7.92;81.88
61618;BME280;47518;51.776;9.370;2023-04-08T09:43:58;101099.19;;;8.15;82.00
61618;BME280;47518;51.776;9.370;2023-04-08T09:46:26;101099.34;;;8.23;81.11
61618;BME280;47518;51.776;9.370;2023-04-08T09:49:04;101100.03;;;8.25;80.23
61618;BME280;47518;51.776;9.370;2023-04-08T09:51:34;101102.16;;;8.22;80.59
61618;BME280;47518;51.776;9.370;2023-04-08T09:54:02;101099.19;;;8.25;82.20
61618;BME280;47518;51.776;9.370;2023-04-08T09:56:38;101108.22;;;8.35;80.60
61618;BME280;47518;51.776;9.370;2023-04-08T09:59:12;101114.72;;;8.13;81.47
61618;BME280;47518;51.776;9.370;2023-04-08T10:01:40;101100.03;;;8.25;80.15
61618;BME280;47518;51.776;9.370;2023-04-08T10:04:11;101106.16;;;8.27;81.62
61618;BME280;47518;51.776;9.370;2023-04-08T10:06:39;101103.44;;;8.17;82.00
61618;BME280;47518;51.776;9.370;2023-04-08T10:09:05;101101.50;;;8.39;82.06
61618;BME280;47518;51.776;9.370;2023-04-08T10:11:31;101099.09;;;8.36;79.86
61618;BME280;47518;51.776;9.370;2023-04-08T10:13:57;101102.34;;;8.49;80.38
61618;BME280;47518;51.776;9.370;2023-04-08T10:16:24;101100.34;;;8.51;80.30
61618;BME280;47518;51.776;9.370;2023-04-08T10:18:52;101111.31;;;8.40;79.99
61618;BME280;47518;51.776;9.370;2023-04-08T10:21:40;101106.34;;;8.35;80.54
61618;BME280;47518;51.776;9.370;2023-04-08T10:24:14;101107.31;;;8.25;81.52
61618;BME280;47518;51.776;9.370;2023-04-08T10:26:42;101102.50;;;8.38;80.99
61618;BME280;47518;51.776;9.370;2023-04-08T10:32:04;101104.41;;;8.94;79.44
61618;BME280;47518;51.776;9.370;2023-04-08T10:34:30;101113.44;;;8.75;78.49
61618;BME280;47518;51.776;9.370;2023-04-08T10:36:56;101120.16;;;8.71;78.66
61618;BME280;47518;51.776;9.370;2023-04-08T10:39:23;101116.28;;;8.25;81.29
61618;BME280;47518;51.776;9.370;2023-04-08T10:41:49;101111.19;;;8.41;80.92
61618;BME280;47518;51.776;9.370;2023-04-08T10:46:57;101120.31;;;8.69;80.44
61618;BME280;47518;51.776;9.370;2023-04-08T10:49:31;101112.88;;;8.81;79.89
61618;BME280;47518;51.776;9.370;2023-04-08T10:52:06;101108.06;;;9.02;78.90
61618;BME280;47518;51.776;9.370;2023-04-08T10:54:31;101105.84;;;8.78;80.13
61618;BME280;47518;51.776;9.370;2023-04-08T10:57:00;101104.19;;;8.39;81.52
61618;BME280;47518;51.776;9.370;2023-04-08T10:59:28;101115.91;;;8.59;80.96
61618;BME280;47518;51.776;9.370;2023-04-08T11:01:54;101114.44;;;8.45;80.35
61618;BME280;47518;51.776;9.370;2023-04-08T11:04:20;101121.88;;;8.62;80.07
61618;BME280;47518;51.776;9.370;2023-04-08T11:06:48;101121.56;;;8.56;80.21
61618;BME280;47518;51.776;9.370;2023-04-08T11:09:14;101123.31;;;8.37;80.66
61618;BME280;47518;51.776;9.370;2023-04-08T11:11:42;101126.75;;;8.49;81.08
61618;BME280;47518;51.776;9.370;2023-04-08T11:14:07;101123.28;;;8.28;81.72
61618;BME280;47518;51.776;9.370;2023-04-08T11:16:34;101119.72;;;8.27;82.08
61618;BME280;47518;51.776;9.370;2023-04-08T11:19:02;101123.03;;;8.50;81.43
61618;BME280;47518;51.776;9.370;2023-04-08T11:21:29;101129.28;;;8.51;81.03
61618;BME280;47518;51.776;9.370;2023-04-08T11:23:54;101124.28;;;8.65;80.40
61618;BME280;47518;51.776;9.370;2023-04-08T11:26:20;101118.16;;;8.73;79.45
61618;BME280;47518;51.776;9.370;2023-04-08T11:28:46;101119.41;;;8.78;79.09
61618;BME280;47518;51.776;9.370;2023-04-08T11:31:16;101120.91;;;9.10;78.44
61618;BME280;47518;51.776;9.370;2023-04-08T11:33:45;101118.34;;;9.09;78.53
61618;BME280;47518;51.776;9.370;2023-04-08T11:36:16;101127.28;;;8.82;79.20
61618;BME280;47518;51.776;9.370;2023-04-08T11:38:45;101137.28;;;8.62;80.33
61618;BME280;47518;51.776;9.370;2023-04-08T11:41:12;101127.44;;;8.80;80.49
61618;BME280;47518;51.776;9.370;2023-04-08T11:43:38;101131.00;;;8.61;80.57
61618;BME280;47518;51.776;9.370;2023-04-08T11:46:09;101130.41;;;8.87;80.39
61618;BME280;47518;51.776;9.370;2023-04-08T11:48:35;101125.47;;;9.10;78.44
61618;BME280;47518;51.776;9.370;2023-04-08T11:51:04;101130.94;;;9.00;78.36
61618;BME280;47518;51.776;9.370;2023-04-08T11:53:29;101122.75;;;9.19;77.30
61618;BME280;47518;51.776;9.370;2023-04-08T11:55:54;101129.69;;;8.94;78.54
61618;BME280;47518;51.776;9.370;2023-04-08T11:58:20;101131.91;;;9.09;78.04
61618;BME280;47518;51.776;9.370;2023-04-08T12:00:49;101124.47;;;9.20;77.16
61618;BME280;47518;51.776;9.370;2023-04-08T12:03:17;101135.94;;;9.04;77.99
61618;BME280;47518;51.776;9.370;2023-04-08T12:05:42;101134.78;;;8.97;78.41
61618;BME280;47518;51.776;9.370;2023-04-08T12:08:08;101135.69;;;9.25;77.91
61618;BME280;47518;51.776;9.370;2023-04-08T12:10:33;101135.16;;;9.22;78.04
61618;BME280;47518;51.776;9.370;2023-04-08T12:12:58;101141.22;;;8.96;78.63
61618;BME280;47518;51.776;9.370;2023-04-08T12:15:24;101142.22;;;8.95;79.17
61618;BME280;47518;51.776;9.370;2023-04-08T12:17:50;101140.06;;;9.09;79.12
61618;BME280;47518;51.776;9.370;2023-04-08T12:20:15;101139.59;;;9.13;77.60
61618;BME280;47518;51.776;9.370;2023-04-08T12:22:41;101138.38;;;9.35;77.29
61618;BME280;47518;51.776;9.370;2023-04-08T12:25:07;101141.47;;;9.13;77.96
61618;BME280;47518;51.776;9.370;2023-04-08T12:27:32;101136.81;;;8.86;78.87
61618;BME280;47518;51.776;9.370;2023-04-08T12:29:58;101135.50;;;8.99;78.28
61618;BME280;47518;51.776;9.370;2023-04-08T12:32:23;101132.56;;;9.30;78.50
61618;BME280;47518;51.776;9.370;2023-04-08T12:34:49;101130.88;;;9.19;78.09
61618;BME280;47518;51.776;9.370;2023-04-08T12:37:15;101125.09;;;9.42;77.85
61618;BME280;47518;51.776;9.370;2023-04-08T12:39:40;101129.84;;;9.30;77.90
61618;BME280;47518;51.776;9.370;2023-04-08T12:42:06;101126.69;;;9.34;77.29
61618;BME280;47518;51.776;9.370;2023-04-08T12:44:31;101130.53;;;9.42;76.81
61618;BME280;47518;51.776;9.370;2023-04-08T12:46:56;101128.16;;;9.56;77.39
61618;BME280;47518;51.776;9.370;2023-04-08T12:49:23;101128.53;;;9.34;76.94
61618;BME280;47518;51.776;9.370;2023-04-08T12:51:48;101125.97;;;9.32;77.31
61618;BME280;47518;51.776;9.370;2023-04-08T12:54:14;101122.75;;;9.19;79.42
61618;BME280;47518;51.776;9.370;2023-04-08T12:56:39;101130.34;;;9.16;78.84
61618;BME280;47518;51.776;9.370;2023-04-08T12:59:07;101127.19;;;9.48;77.10
61618;BME280;47518;51.776;9.370;2023-04-08T13:01:32;101128.47;;;9.53;77.16
61618;BME280;47518;51.776;9.370;2023-04-08T13:03:57;101118.41;;;9.63;76.38
61618;BME280;47518;51.776;9.370;2023-04-08T13:06:25;101124.19;;;9.51;76.22
61618;BME280;47518;51.776;9.370;2023-04-08T13:08:51;101120.66;;;9.68;76.99
61618;BME280;47518;51.776;9.370;2023-04-08T13:11:17;101118.09;;;9.67;75.89
61618;BME280;47518;51.776;9.370;2023-04-08T13:13:42;101119.34;;;9.45;77.06
61618;BME280;47518;51.776;9.370;2023-04-08T13:16:11;101122.69;;;9.66;76.82
61618;BME280;47518;51.776;9.370;2023-04-08T13:18:38;101129.78;;;9.77;77.00
61618;BME280;47518;51.776;9.370;2023-04-08T13:21:03;101120.47;;;9.79;75.63
61618;BME280;47518;51.776;9.370;2023-04-08T13:23:29;101124.84;;;9.62;76.20
61618;BME280;47518;51.776;9.370;2023-04-08T13:25:54;101116.94;;;9.69;76.08